Terminal Aerodrome Forecast
Issued by NWS Mt. Holly, NJ

Home | Current Version | Previous Version | Text Only | Print | Product List | Glossary On
Versions: 1 2 3 4 5 6 7 8 9 10 11 12 13 14 15 16 17 18
561
FTUS41 KPHI 262337
TAFTTN
TAF
KTTN 262337Z 2700/2724 28004KT P6SM SCT250
     FM270500 VRB03KT P6SM SCT100
     FM271100 08004KT P6SM -RA OVC060
     FM271300 08004KT P6SM -RA SCT015 OVC030
     FM271500 07006KT 4SM -RA BR OVC008
     FM272100 34006KT P6SM SCT010 OVC025=

USA.gov is the U.S. government's official web portal to all federal, state and local government web resources and services.